sensor_id;sensor_type;location;lat;lon;timestamp;P1;durP1;ratioP1;P2;durP2;ratioP2
13327;SDS011;6733;51.044;3.746;2024-01-11T00:01:17;26.37;;;17.70;;
13327;SDS011;6733;51.044;3.746;2024-01-11T00:03:43;23.93;;;17.60;;
13327;SDS011;6733;51.044;3.746;2024-01-11T00:06:09;23.33;;;17.10;;
13327;SDS011;6733;51.044;3.746;2024-01-11T00:08:36;22.63;;;17.30;;
13327;SDS011;6733;51.044;3.746;2024-01-11T00:11:02;23.83;;;17.90;;
13327;SDS011;6733;51.044;3.746;2024-01-11T00:13:29;24.87;;;18.70;;
13327;SDS011;6733;51.044;3.746;2024-01-11T00:15:55;26.10;;;19.10;;
13327;SDS011;6733;51.044;3.746;2024-01-11T00:18:21;24.50;;;18.70;;
13327;SDS011;6733;51.044;3.746;2024-01-11T00:20:47;25.90;;;18.50;;
13327;SDS011;6733;51.044;3.746;2024-01-11T00:23:13;25.40;;;18.60;;
13327;SDS011;6733;51.044;3.746;2024-01-11T00:25:40;23.30;;;17.97;;
13327;SDS011;6733;51.044;3.746;2024-01-11T00:28:06;24.83;;;18.47;;
13327;SDS011;6733;51.044;3.746;2024-01-11T00:30:32;25.17;;;18.30;;
13327;SDS011;6733;51.044;3.746;2024-01-11T00:32:58;23.13;;;17.43;;
13327;SDS011;6733;51.044;3.746;2024-01-11T00:35:24;27.53;;;19.50;;
13327;SDS011;6733;51.044;3.746;2024-01-11T00:37:51;22.70;;;17.73;;
13327;SDS011;6733;51.044;3.746;2024-01-11T00:40:17;25.70;;;17.83;;
13327;SDS011;6733;51.044;3.746;2024-01-11T00:42:43;25.80;;;18.67;;
13327;SDS011;6733;51.044;3.746;2024-01-11T00:45:09;25.67;;;18.77;;
13327;SDS011;6733;51.044;3.746;2024-01-11T00:47:35;23.60;;;17.63;;
13327;SDS011;6733;51.044;3.746;2024-01-11T00:50:01;27.20;;;17.47;;
13327;SDS011;6733;51.044;3.746;2024-01-11T00:52:28;23.87;;;16.90;;
13327;SDS011;6733;51.044;3.746;2024-01-11T00:54:54;23.50;;;18.03;;
13327;SDS011;6733;51.044;3.746;2024-01-11T00:57:20;23.57;;;18.60;;
13327;SDS011;6733;51.044;3.746;2024-01-11T00:59:46;23.27;;;18.33;;
13327;SDS011;6733;51.044;3.746;2024-01-11T01:02:12;23.57;;;18.07;;
13327;SDS011;6733;51.044;3.746;2024-01-11T01:04:39;26.27;;;19.07;;
13327;SDS011;6733;51.044;3.746;2024-01-11T01:07:05;24.97;;;18.83;;
13327;SDS011;6733;51.044;3.746;2024-01-11T01:09:31;24.63;;;18.80;;
13327;SDS011;6733;51.044;3.746;2024-01-11T01:11:57;25.43;;;19.13;;
13327;SDS011;6733;51.044;3.746;2024-01-11T01:14:24;25.03;;;18.47;;
13327;SDS011;6733;51.044;3.746;2024-01-11T01:16:50;23.97;;;18.83;;
13327;SDS011;6733;51.044;3.746;2024-01-11T01:19:16;23.00;;;17.37;;
13327;SDS011;6733;51.044;3.746;2024-01-11T01:21:42;25.27;;;17.80;;
13327;SDS011;6733;51.044;3.746;2024-01-11T01:24:08;25.83;;;18.67;;
13327;SDS011;6733;51.044;3.746;2024-01-11T01:26:35;25.17;;;18.90;;
13327;SDS011;6733;51.044;3.746;2024-01-11T01:29:01;24.40;;;18.37;;
13327;SDS011;6733;51.044;3.746;2024-01-11T01:31:27;25.93;;;18.17;;
13327;SDS011;6733;51.044;3.746;2024-01-11T01:33:54;23.67;;;17.57;;
13327;SDS011;6733;51.044;3.746;2024-01-11T01:36:20;24.40;;;18.77;;
13327;SDS011;6733;51.044;3.746;2024-01-11T01:38:46;25.07;;;18.73;;
13327;SDS011;6733;51.044;3.746;2024-01-11T01:41:12;23.83;;;18.87;;
13327;SDS011;6733;51.044;3.746;2024-01-11T01:43:38;24.57;;;18.93;;
13327;SDS011;6733;51.044;3.746;2024-01-11T01:46:05;20.93;;;17.60;;
13327;SDS011;6733;51.044;3.746;2024-01-11T01:48:31;22.90;;;17.90;;
13327;SDS011;6733;51.044;3.746;2024-01-11T01:50:58;23.37;;;18.43;;
13327;SDS011;6733;51.044;3.746;2024-01-11T01:53:24;21.30;;;17.33;;
13327;SDS011;6733;51.044;3.746;2024-01-11T01:55:53;21.90;;;17.27;;
13327;SDS011;6733;51.044;3.746;2024-01-11T01:58:20;26.67;;;17.87;;
13327;SDS011;6733;51.044;3.746;2024-01-11T02:00:47;24.60;;;17.87;;
13327;SDS011;6733;51.044;3.746;2024-01-11T02:03:16;26.33;;;19.27;;
13327;SDS011;6733;51.044;3.746;2024-01-11T02:05:43;22.60;;;18.07;;
13327;SDS011;6733;51.044;3.746;2024-01-11T02:08:12;22.77;;;18.10;;
13327;SDS011;6733;51.044;3.746;2024-01-11T02:10:43;23.60;;;17.87;;
13327;SDS011;6733;51.044;3.746;2024-01-11T02:13:10;23.13;;;18.90;;
13327;SDS011;6733;51.044;3.746;2024-01-11T02:15:38;23.80;;;17.53;;
13327;SDS011;6733;51.044;3.746;2024-01-11T02:18:05;22.60;;;16.83;;
13327;SDS011;6733;51.044;3.746;2024-01-11T02:20:31;23.20;;;17.27;;
13327;SDS011;6733;51.044;3.746;2024-01-11T02:22:58;25.00;;;18.40;;
13327;SDS011;6733;51.044;3.746;2024-01-11T02:25:30;23.67;;;18.07;;
13327;SDS011;6733;51.044;3.746;2024-01-11T02:27:56;24.67;;;16.93;;
13327;SDS011;6733;51.044;3.746;2024-01-11T02:30:22;23.87;;;17.43;;
13327;SDS011;6733;51.044;3.746;2024-01-11T02:32:49;23.30;;;17.77;;
13327;SDS011;6733;51.044;3.746;2024-01-11T02:35:16;24.13;;;17.00;;
13327;SDS011;6733;51.044;3.746;2024-01-11T02:38:08;22.80;;;17.70;;
13327;SDS011;6733;51.044;3.746;2024-01-11T02:40:59;23.63;;;18.30;;
13327;SDS011;6733;51.044;3.746;2024-01-11T02:43:51;23.70;;;17.00;;
13327;SDS011;6733;51.044;3.746;2024-01-11T02:46:44;26.67;;;19.03;;
13327;SDS011;6733;51.044;3.746;2024-01-11T02:49:35;24.87;;;19.07;;
13327;SDS011;6733;51.044;3.746;2024-01-11T02:52:26;23.37;;;18.23;;
13327;SDS011;6733;51.044;3.746;2024-01-11T02:55:17;23.23;;;18.40;;
13327;SDS011;6733;51.044;3.746;2024-01-11T02:58:08;25.23;;;18.73;;
13327;SDS011;6733;51.044;3.746;2024-01-11T03:00:34;26.10;;;20.03;;
13327;SDS011;6733;51.044;3.746;2024-01-11T03:03:01;26.07;;;19.77;;
13327;SDS011;6733;51.044;3.746;2024-01-11T03:05:27;25.37;;;18.53;;
13327;SDS011;6733;51.044;3.746;2024-01-11T03:07:53;26.07;;;18.33;;
13327;SDS011;6733;51.044;3.746;2024-01-11T03:10:19;22.73;;;17.43;;
13327;SDS011;6733;51.044;3.746;2024-01-11T03:12:46;25.93;;;18.37;;
13327;SDS011;6733;51.044;3.746;2024-01-11T03:15:15;24.63;;;18.00;;
13327;SDS011;6733;51.044;3.746;2024-01-11T03:17:41;24.53;;;18.60;;
13327;SDS011;6733;51.044;3.746;2024-01-11T03:20:07;24.10;;;18.03;;
13327;SDS011;6733;51.044;3.746;2024-01-11T03:22:34;26.23;;;18.97;;
13327;SDS011;6733;51.044;3.746;2024-01-11T03:25:00;24.90;;;18.73;;
13327;SDS011;6733;51.044;3.746;2024-01-11T03:27:26;24.60;;;18.30;;
13327;SDS011;6733;51.044;3.746;2024-01-11T03:29:52;22.87;;;17.83;;
13327;SDS011;6733;51.044;3.746;2024-01-11T03:32:18;24.80;;;17.60;;
13327;SDS011;6733;51.044;3.746;2024-01-11T03:34:44;23.57;;;18.73;;
13327;SDS011;6733;51.044;3.746;2024-01-11T03:37:11;25.57;;;18.73;;
13327;SDS011;6733;51.044;3.746;2024-01-11T03:39:37;24.93;;;18.33;;
13327;SDS011;6733;51.044;3.746;2024-01-11T03:42:03;23.30;;;18.43;;
13327;SDS011;6733;51.044;3.746;2024-01-11T03:44:30;24.10;;;18.13;;
13327;SDS011;6733;51.044;3.746;2024-01-11T03:46:56;28.47;;;23.10;;
13327;SDS011;6733;51.044;3.746;2024-01-11T03:49:23;28.50;;;21.53;;
13327;SDS011;6733;51.044;3.746;2024-01-11T03:51:49;26.93;;;19.97;;
13327;SDS011;6733;51.044;3.746;2024-01-11T03:54:15;22.87;;;18.40;;
13327;SDS011;6733;51.044;3.746;2024-01-11T03:56:41;25.13;;;17.13;;
13327;SDS011;6733;51.044;3.746;2024-01-11T03:59:08;25.43;;;19.00;;
13327;SDS011;6733;51.044;3.746;2024-01-11T04:01:39;25.27;;;19.30;;
13327;SDS011;6733;51.044;3.746;2024-01-11T04:04:06;26.07;;;19.10;;
13327;SDS011;6733;51.044;3.746;2024-01-11T04:06:32;24.17;;;18.23;;
13327;SDS011;6733;51.044;3.746;2024-01-11T04:08:59;26.23;;;18.83;;
13327;SDS011;6733;51.044;3.746;2024-01-11T04:11:28;24.37;;;18.70;;
13327;SDS011;6733;51.044;3.746;2024-01-11T04:13:54;24.77;;;17.53;;
13327;SDS011;6733;51.044;3.746;2024-01-11T04:16:21;25.10;;;18.93;;
13327;SDS011;6733;51.044;3.746;2024-01-11T04:18:47;23.87;;;18.47;;
13327;SDS011;6733;51.044;3.746;2024-01-11T04:21:20;26.03;;;19.10;;
13327;SDS011;6733;51.044;3.746;2024-01-11T04:23:47;25.23;;;18.90;;
13327;SDS011;6733;51.044;3.746;2024-01-11T04:26:14;24.67;;;19.67;;
13327;SDS011;6733;51.044;3.746;2024-01-11T04:28:40;26.07;;;19.27;;
13327;SDS011;6733;51.044;3.746;2024-01-11T04:31:08;24.73;;;19.90;;
13327;SDS011;6733;51.044;3.746;2024-01-11T04:33:34;24.37;;;19.83;;
13327;SDS011;6733;51.044;3.746;2024-01-11T04:36:00;28.90;;;20.30;;
13327;SDS011;6733;51.044;3.746;2024-01-11T04:38:26;24.97;;;19.17;;
13327;SDS011;6733;51.044;3.746;2024-01-11T04:40:52;26.03;;;19.33;;
13327;SDS011;6733;51.044;3.746;2024-01-11T04:43:18;25.10;;;18.93;;
13327;SDS011;6733;51.044;3.746;2024-01-11T04:45:45;26.97;;;19.87;;
13327;SDS011;6733;51.044;3.746;2024-01-11T04:48:11;26.23;;;19.20;;
13327;SDS011;6733;51.044;3.746;2024-01-11T04:50:37;25.40;;;19.27;;
13327;SDS011;6733;51.044;3.746;2024-01-11T04:53:03;25.07;;;20.17;;
13327;SDS011;6733;51.044;3.746;2024-01-11T04:55:29;26.47;;;19.93;;
13327;SDS011;6733;51.044;3.746;2024-01-11T04:57:55;26.90;;;19.60;;
13327;SDS011;6733;51.044;3.746;2024-01-11T05:00:21;26.23;;;19.90;;
13327;SDS011;6733;51.044;3.746;2024-01-11T05:02:48;26.23;;;18.77;;
13327;SDS011;6733;51.044;3.746;2024-01-11T05:05:14;28.07;;;19.67;;
13327;SDS011;6733;51.044;3.746;2024-01-11T05:07:40;29.03;;;19.43;;
13327;SDS011;6733;51.044;3.746;2024-01-11T05:10:06;28.77;;;20.97;;
13327;SDS011;6733;51.044;3.746;2024-01-11T05:12:33;25.20;;;19.63;;
13327;SDS011;6733;51.044;3.746;2024-01-11T05:14:59;27.70;;;20.10;;
13327;SDS011;6733;51.044;3.746;2024-01-11T05:17:26;28.20;;;19.13;;
13327;SDS011;6733;51.044;3.746;2024-01-11T05:19:52;26.03;;;19.83;;
13327;SDS011;6733;51.044;3.746;2024-01-11T05:22:18;26.47;;;20.57;;
13327;SDS011;6733;51.044;3.746;2024-01-11T05:24:45;25.63;;;20.23;;
13327;SDS011;6733;51.044;3.746;2024-01-11T05:27:11;25.33;;;20.07;;
13327;SDS011;6733;51.044;3.746;2024-01-11T05:29:37;26.60;;;20.10;;
13327;SDS011;6733;51.044;3.746;2024-01-11T05:32:03;26.07;;;20.47;;
13327;SDS011;6733;51.044;3.746;2024-01-11T05:34:30;27.13;;;20.07;;
13327;SDS011;6733;51.044;3.746;2024-01-11T05:36:56;26.37;;;20.10;;
13327;SDS011;6733;51.044;3.746;2024-01-11T05:39:22;27.17;;;19.53;;
13327;SDS011;6733;51.044;3.746;2024-01-11T05:41:48;24.40;;;19.83;;
13327;SDS011;6733;51.044;3.746;2024-01-11T05:44:14;28.83;;;20.03;;
13327;SDS011;6733;51.044;3.746;2024-01-11T05:46:40;25.73;;;19.87;;
13327;SDS011;6733;51.044;3.746;2024-01-11T05:49:06;25.90;;;19.57;;
13327;SDS011;6733;51.044;3.746;2024-01-11T05:51:33;25.47;;;20.13;;
13327;SDS011;6733;51.044;3.746;2024-01-11T05:53:59;26.13;;;20.00;;
13327;SDS011;6733;51.044;3.746;2024-01-11T05:56:26;29.33;;;19.23;;
13327;SDS011;6733;51.044;3.746;2024-01-11T05:58:52;25.87;;;20.73;;
13327;SDS011;6733;51.044;3.746;2024-01-11T06:01:18;29.23;;;20.90;;
13327;SDS011;6733;51.044;3.746;2024-01-11T06:03:44;25.33;;;20.17;;
13327;SDS011;6733;51.044;3.746;2024-01-11T06:06:11;25.83;;;20.00;;
13327;SDS011;6733;51.044;3.746;2024-01-11T06:08:37;23.77;;;18.40;;
13327;SDS011;6733;51.044;3.746;2024-01-11T06:11:03;24.03;;;19.23;;
13327;SDS011;6733;51.044;3.746;2024-01-11T06:13:30;25.60;;;19.23;;
13327;SDS011;6733;51.044;3.746;2024-01-11T06:15:56;27.90;;;20.13;;
13327;SDS011;6733;51.044;3.746;2024-01-11T06:18:22;25.80;;;19.60;;
13327;SDS011;6733;51.044;3.746;2024-01-11T06:20:48;29.40;;;20.33;;
13327;SDS011;6733;51.044;3.746;2024-01-11T06:23:14;25.27;;;19.43;;
13327;SDS011;6733;51.044;3.746;2024-01-11T06:25:42;26.97;;;20.43;;
13327;SDS011;6733;51.044;3.746;2024-01-11T06:28:08;27.77;;;21.30;;
13327;SDS011;6733;51.044;3.746;2024-01-11T06:30:35;25.53;;;20.17;;
13327;SDS011;6733;51.044;3.746;2024-01-11T06:33:01;27.53;;;20.03;;
13327;SDS011;6733;51.044;3.746;2024-01-11T06:35:28;26.03;;;19.93;;
13327;SDS011;6733;51.044;3.746;2024-01-11T06:37:54;24.53;;;19.97;;
13327;SDS011;6733;51.044;3.746;2024-01-11T06:40:21;26.80;;;19.77;;
13327;SDS011;6733;51.044;3.746;2024-01-11T06:42:47;25.73;;;20.00;;
13327;SDS011;6733;51.044;3.746;2024-01-11T06:45:13;26.50;;;20.17;;
13327;SDS011;6733;51.044;3.746;2024-01-11T06:47:40;24.90;;;20.03;;
13327;SDS011;6733;51.044;3.746;2024-01-11T06:50:06;27.67;;;20.20;;
13327;SDS011;6733;51.044;3.746;2024-01-11T06:52:34;28.03;;;19.77;;
13327;SDS011;6733;51.044;3.746;2024-01-11T06:55:00;27.60;;;20.67;;
13327;SDS011;6733;51.044;3.746;2024-01-11T06:57:26;24.37;;;19.63;;
13327;SDS011;6733;51.044;3.746;2024-01-11T06:59:52;25.63;;;20.13;;
13327;SDS011;6733;51.044;3.746;2024-01-11T07:02:18;25.57;;;19.83;;
13327;SDS011;6733;51.044;3.746;2024-01-11T07:04:44;23.40;;;18.67;;
13327;SDS011;6733;51.044;3.746;2024-01-11T07:07:11;24.27;;;19.97;;
13327;SDS011;6733;51.044;3.746;2024-01-11T07:09:37;24.83;;;19.07;;
13327;SDS011;6733;51.044;3.746;2024-01-11T07:12:03;29.07;;;21.03;;
13327;SDS011;6733;51.044;3.746;2024-01-11T07:14:30;24.73;;;20.17;;
13327;SDS011;6733;51.044;3.746;2024-01-11T07:16:57;25.97;;;21.03;;
13327;SDS011;6733;51.044;3.746;2024-01-11T07:19:23;25.80;;;18.93;;
13327;SDS011;6733;51.044;3.746;2024-01-11T07:21:49;26.70;;;20.20;;
13327;SDS011;6733;51.044;3.746;2024-01-11T07:24:16;26.47;;;20.03;;
13327;SDS011;6733;51.044;3.746;2024-01-11T07:26:44;25.20;;;18.87;;
13327;SDS011;6733;51.044;3.746;2024-01-11T07:29:10;26.50;;;19.33;;
13327;SDS011;6733;51.044;3.746;2024-01-11T07:31:36;25.77;;;20.33;;
13327;SDS011;6733;51.044;3.746;2024-01-11T07:34:02;26.13;;;20.57;;
13327;SDS011;6733;51.044;3.746;2024-01-11T07:36:28;27.30;;;20.47;;
13327;SDS011;6733;51.044;3.746;2024-01-11T07:38:55;25.57;;;20.50;;
13327;SDS011;6733;51.044;3.746;2024-01-11T07:41:22;25.97;;;20.30;;
13327;SDS011;6733;51.044;3.746;2024-01-11T07:43:48;28.57;;;21.13;;
13327;SDS011;6733;51.044;3.746;2024-01-11T07:46:14;27.83;;;21.67;;
13327;SDS011;6733;51.044;3.746;2024-01-11T07:48:41;27.60;;;19.97;;
13327;SDS011;6733;51.044;3.746;2024-01-11T07:51:07;27.33;;;21.23;;
13327;SDS011;6733;51.044;3.746;2024-01-11T07:53:33;25.57;;;20.27;;
13327;SDS011;6733;51.044;3.746;2024-01-11T07:55:59;27.47;;;21.27;;
13327;SDS011;6733;51.044;3.746;2024-01-11T07:58:25;26.60;;;20.10;;
13327;SDS011;6733;51.044;3.746;2024-01-11T08:00:51;28.07;;;19.63;;
13327;SDS011;6733;51.044;3.746;2024-01-11T08:03:17;27.07;;;20.27;;
13327;SDS011;6733;51.044;3.746;2024-01-11T08:05:43;27.70;;;20.83;;
13327;SDS011;6733;51.044;3.746;2024-01-11T08:08:10;27.43;;;20.93;;
13327;SDS011;6733;51.044;3.746;2024-01-11T08:10:36;26.27;;;20.73;;
13327;SDS011;6733;51.044;3.746;2024-01-11T08:13:02;27.70;;;21.93;;
13327;SDS011;6733;51.044;3.746;2024-01-11T08:15:29;26.90;;;20.97;;
13327;SDS011;6733;51.044;3.746;2024-01-11T08:17:55;26.27;;;20.73;;
13327;SDS011;6733;51.044;3.746;2024-01-11T08:20:22;25.07;;;21.20;;
13327;SDS011;6733;51.044;3.746;2024-01-11T08:22:48;26.80;;;21.50;;
13327;SDS011;6733;51.044;3.746;2024-01-11T08:25:14;27.80;;;22.07;;
13327;SDS011;6733;51.044;3.746;2024-01-11T08:27:40;26.20;;;20.90;;
13327;SDS011;6733;51.044;3.746;2024-01-11T08:30:07;25.27;;;20.43;;
13327;SDS011;6733;51.044;3.746;2024-01-11T08:32:33;26.47;;;21.47;;
13327;SDS011;6733;51.044;3.746;2024-01-11T08:35:05;29.10;;;20.97;;
13327;SDS011;6733;51.044;3.746;2024-01-11T08:37:32;26.03;;;20.43;;
13327;SDS011;6733;51.044;3.746;2024-01-11T08:39:58;28.43;;;21.50;;
13327;SDS011;6733;51.044;3.746;2024-01-11T08:42:24;24.83;;;19.97;;
13327;SDS011;6733;51.044;3.746;2024-01-11T08:44:51;25.57;;;20.33;;
13327;SDS011;6733;51.044;3.746;2024-01-11T08:47:18;25.37;;;20.23;;
13327;SDS011;6733;51.044;3.746;2024-01-11T08:49:44;25.33;;;19.63;;
13327;SDS011;6733;51.044;3.746;2024-01-11T08:52:10;24.93;;;19.17;;
13327;SDS011;6733;51.044;3.746;2024-01-11T08:54:36;23.80;;;19.30;;
13327;SDS011;6733;51.044;3.746;2024-01-11T08:57:02;22.93;;;19.50;;
13327;SDS011;6733;51.044;3.746;2024-01-11T08:59:29;28.97;;;20.17;;
13327;SDS011;6733;51.044;3.746;2024-01-11T09:01:55;25.67;;;18.63;;
13327;SDS011;6733;51.044;3.746;2024-01-11T09:04:21;28.13;;;20.10;;
13327;SDS011;6733;51.044;3.746;2024-01-11T09:06:47;26.63;;;19.10;;
13327;SDS011;6733;51.044;3.746;2024-01-11T09:09:13;25.37;;;18.70;;
13327;SDS011;6733;51.044;3.746;2024-01-11T09:11:40;25.57;;;19.63;;
13327;SDS011;6733;51.044;3.746;2024-01-11T09:14:07;23.13;;;18.97;;
13327;SDS011;6733;51.044;3.746;2024-01-11T09:16:36;25.17;;;19.47;;
13327;SDS011;6733;51.044;3.746;2024-01-11T09:19:03;25.53;;;19.37;;
13327;SDS011;6733;51.044;3.746;2024-01-11T09:21:29;25.20;;;19.77;;
13327;SDS011;6733;51.044;3.746;2024-01-11T09:23:55;24.47;;;20.33;;
13327;SDS011;6733;51.044;3.746;2024-01-11T09:26:21;24.30;;;19.70;;
13327;SDS011;6733;51.044;3.746;2024-01-11T09:28:48;26.10;;;19.13;;
13327;SDS011;6733;51.044;3.746;2024-01-11T09:31:14;25.73;;;19.30;;
13327;SDS011;6733;51.044;3.746;2024-01-11T09:33:40;26.47;;;19.67;;
13327;SDS011;6733;51.044;3.746;2024-01-11T09:36:11;28.97;;;21.37;;
13327;SDS011;6733;51.044;3.746;2024-01-11T09:38:38;28.23;;;21.00;;
13327;SDS011;6733;51.044;3.746;2024-01-11T09:41:06;26.07;;;20.57;;
13327;SDS011;6733;51.044;3.746;2024-01-11T09:43:34;26.53;;;20.27;;
13327;SDS011;6733;51.044;3.746;2024-01-11T09:46:04;26.10;;;21.27;;
13327;SDS011;6733;51.044;3.746;2024-01-11T09:48:35;26.10;;;19.10;;
13327;SDS011;6733;51.044;3.746;2024-01-11T09:51:03;25.53;;;19.13;;
13327;SDS011;6733;51.044;3.746;2024-01-11T09:53:33;26.07;;;19.67;;
13327;SDS011;6733;51.044;3.746;2024-01-11T09:56:00;27.83;;;20.40;;
13327;SDS011;6733;51.044;3.746;2024-01-11T09:58:26;26.60;;;19.43;;
13327;SDS011;6733;51.044;3.746;2024-01-11T10:00:55;27.10;;;19.00;;
13327;SDS011;6733;51.044;3.746;2024-01-11T10:03:25;25.17;;;18.67;;
13327;SDS011;6733;51.044;3.746;2024-01-11T10:05:53;25.70;;;19.00;;
13327;SDS011;6733;51.044;3.746;2024-01-11T10:08:22;28.03;;;18.93;;
13327;SDS011;6733;51.044;3.746;2024-01-11T10:10:49;25.67;;;19.40;;
13327;SDS011;6733;51.044;3.746;2024-01-11T10:13:15;26.53;;;18.63;;
13327;SDS011;6733;51.044;3.746;2024-01-11T10:15:42;26.20;;;20.27;;
13327;SDS011;6733;51.044;3.746;2024-01-11T10:18:09;27.10;;;19.43;;
13327;SDS011;6733;51.044;3.746;2024-01-11T10:20:36;27.40;;;19.53;;
13327;SDS011;6733;51.044;3.746;2024-01-11T10:23:03;30.83;;;19.57;;
13327;SDS011;6733;51.044;3.746;2024-01-11T10:25:29;30.20;;;19.70;;
13327;SDS011;6733;51.044;3.746;2024-01-11T10:27:55;27.00;;;20.07;;
13327;SDS011;6733;51.044;3.746;2024-01-11T10:30:23;29.80;;;20.97;;
13327;SDS011;6733;51.044;3.746;2024-01-11T10:32:51;28.43;;;20.70;;
13327;SDS011;6733;51.044;3.746;2024-01-11T10:35:17;29.23;;;20.27;;
13327;SDS011;6733;51.044;3.746;2024-01-11T10:37:44;30.17;;;20.70;;
13327;SDS011;6733;51.044;3.746;2024-01-11T10:40:10;28.33;;;21.50;;
13327;SDS011;6733;51.044;3.746;2024-01-11T10:42:43;29.50;;;19.80;;
13327;SDS011;6733;51.044;3.746;2024-01-11T10:45:15;27.87;;;20.47;;
13327;SDS011;6733;51.044;3.746;2024-01-11T10:47:51;30.00;;;20.97;;
13327;SDS011;6733;51.044;3.746;2024-01-11T10:50:21;25.00;;;19.10;;
13327;SDS011;6733;51.044;3.746;2024-01-11T10:55:36;26.10;;;18.43;;
13327;SDS011;6733;51.044;3.746;2024-01-11T10:58:04;28.87;;;18.63;;
13327;SDS011;6733;51.044;3.746;2024-01-11T11:00:31;25.80;;;18.30;;
13327;SDS011;6733;51.044;3.746;2024-01-11T11:02:59;25.17;;;17.77;;
13327;SDS011;6733;51.044;3.746;2024-01-11T11:05:27;27.10;;;18.10;;
13327;SDS011;6733;51.044;3.746;2024-01-11T11:07:57;28.90;;;18.97;;
13327;SDS011;6733;51.044;3.746;2024-01-11T11:10:27;27.57;;;18.00;;
13327;SDS011;6733;51.044;3.746;2024-01-11T11:12:55;29.00;;;18.93;;
13327;SDS011;6733;51.044;3.746;2024-01-11T11:15:26;29.53;;;19.70;;
13327;SDS011;6733;51.044;3.746;2024-01-11T11:17:54;27.03;;;18.63;;
13327;SDS011;6733;51.044;3.746;2024-01-11T11:20:20;29.83;;;18.97;;
13327;SDS011;6733;51.044;3.746;2024-01-11T11:23:20;26.97;;;18.13;;
13327;SDS011;6733;51.044;3.746;2024-01-11T11:25:44;26.80;;;18.17;;
13327;SDS011;6733;51.044;3.746;2024-01-11T11:28:12;25.83;;;18.60;;
13327;SDS011;6733;51.044;3.746;2024-01-11T11:30:40;29.07;;;19.57;;
13327;SDS011;6733;51.044;3.746;2024-01-11T11:33:18;25.77;;;17.90;;
13327;SDS011;6733;51.044;3.746;2024-01-11T11:35:52;24.03;;;16.67;;
13327;SDS011;6733;51.044;3.746;2024-01-11T11:38:20;23.73;;;17.37;;
13327;SDS011;6733;51.044;3.746;2024-01-11T11:40:48;25.40;;;17.37;;
13327;SDS011;6733;51.044;3.746;2024-01-11T11:43:16;22.23;;;16.27;;
13327;SDS011;6733;51.044;3.746;2024-01-11T11:45:44;22.73;;;16.00;;
13327;SDS011;6733;51.044;3.746;2024-01-11T11:53:38;23.23;;;15.60;;
13327;SDS011;6733;51.044;3.746;2024-01-11T11:56:06;24.43;;;16.63;;
13327;SDS011;6733;51.044;3.746;2024-01-11T11:58:33;22.10;;;15.73;;
13327;SDS011;6733;51.044;3.746;2024-01-11T12:01:00;23.60;;;15.90;;
13327;SDS011;6733;51.044;3.746;2024-01-11T12:03:37;21.73;;;15.57;;
13327;SDS011;6733;51.044;3.746;2024-01-11T12:06:07;21.07;;;15.80;;
13327;SDS011;6733;51.044;3.746;2024-01-11T12:08:35;21.60;;;15.23;;
13327;SDS011;6733;51.044;3.746;2024-01-11T12:11:02;23.27;;;16.03;;
13327;SDS011;6733;51.044;3.746;2024-01-11T12:13:29;22.13;;;15.80;;
13327;SDS011;6733;51.044;3.746;2024-01-11T12:15:56;21.93;;;15.83;;
13327;SDS011;6733;51.044;3.746;2024-01-11T12:18:22;26.53;;;16.57;;
13327;SDS011;6733;51.044;3.746;2024-01-11T12:20:48;21.23;;;15.53;;
13327;SDS011;6733;51.044;3.746;2024-01-11T12:23:15;23.07;;;15.20;;
13327;SDS011;6733;51.044;3.746;2024-01-11T12:25:41;21.13;;;15.43;;
13327;SDS011;6733;51.044;3.746;2024-01-11T12:28:08;21.93;;;15.10;;
13327;SDS011;6733;51.044;3.746;2024-01-11T12:30:35;21.10;;;14.83;;
13327;SDS011;6733;51.044;3.746;2024-01-11T12:33:01;19.67;;;14.47;;
13327;SDS011;6733;51.044;3.746;2024-01-11T12:35:28;19.70;;;14.33;;
13327;SDS011;6733;51.044;3.746;2024-01-11T12:40:35;22.97;;;15.50;;
13327;SDS011;6733;51.044;3.746;2024-01-11T12:43:05;23.87;;;16.00;;
13327;SDS011;6733;51.044;3.746;2024-01-11T12:45:34;21.80;;;15.93;;
13327;SDS011;6733;51.044;3.746;2024-01-11T12:48:00;24.50;;;15.67;;
13327;SDS011;6733;51.044;3.746;2024-01-11T12:50:29;24.77;;;15.70;;
13327;SDS011;6733;51.044;3.746;2024-01-11T12:53:12;22.47;;;15.83;;
13327;SDS011;6733;51.044;3.746;2024-01-11T12:55:46;23.73;;;16.70;;
13327;SDS011;6733;51.044;3.746;2024-01-11T12:58:13;23.17;;;15.67;;
13327;SDS011;6733;51.044;3.746;2024-01-11T13:00:46;22.93;;;15.80;;
13327;SDS011;6733;51.044;3.746;2024-01-11T13:03:12;21.97;;;15.93;;
13327;SDS011;6733;51.044;3.746;2024-01-11T13:05:38;22.37;;;15.70;;
13327;SDS011;6733;51.044;3.746;2024-01-11T13:08:08;22.20;;;16.40;;
13327;SDS011;6733;51.044;3.746;2024-01-11T13:10:35;25.63;;;17.20;;
13327;SDS011;6733;51.044;3.746;2024-01-11T13:13:01;24.13;;;17.00;;
13327;SDS011;6733;51.044;3.746;2024-01-11T13:15:28;21.17;;;15.80;;
13327;SDS011;6733;51.044;3.746;2024-01-11T13:17:55;23.93;;;16.60;;
13327;SDS011;6733;51.044;3.746;2024-01-11T13:20:22;22.50;;;15.47;;
13327;SDS011;6733;51.044;3.746;2024-01-11T13:22:49;23.23;;;16.00;;
13327;SDS011;6733;51.044;3.746;2024-01-11T13:25:35;21.67;;;15.30;;
13327;SDS011;6733;51.044;3.746;2024-01-11T13:28:02;23.13;;;15.73;;
13327;SDS011;6733;51.044;3.746;2024-01-11T13:30:28;20.90;;;15.33;;
13327;SDS011;6733;51.044;3.746;2024-01-11T13:32:54;18.53;;;14.67;;
13327;SDS011;6733;51.044;3.746;2024-01-11T13:35:20;18.93;;;13.67;;
13327;SDS011;6733;51.044;3.746;2024-01-11T13:37:47;19.27;;;14.43;;
13327;SDS011;6733;51.044;3.746;2024-01-11T13:40:13;19.80;;;13.60;;
13327;SDS011;6733;51.044;3.746;2024-01-11T13:42:40;21.87;;;13.50;;
13327;SDS011;6733;51.044;3.746;2024-01-11T13:45:06;18.30;;;13.37;;
13327;SDS011;6733;51.044;3.746;2024-01-11T13:47:34;17.43;;;13.20;;
13327;SDS011;6733;51.044;3.746;2024-01-11T13:50:01;18.80;;;13.13;;
13327;SDS011;6733;51.044;3.746;2024-01-11T13:52:27;18.57;;;13.50;;
13327;SDS011;6733;51.044;3.746;2024-01-11T13:54:54;19.77;;;13.77;;
13327;SDS011;6733;51.044;3.746;2024-01-11T13:57:20;21.37;;;13.80;;
13327;SDS011;6733;51.044;3.746;2024-01-11T13:59:46;23.37;;;14.73;;
13327;SDS011;6733;51.044;3.746;2024-01-11T14:02:13;21.10;;;15.07;;
13327;SDS011;6733;51.044;3.746;2024-01-11T14:04:39;21.63;;;15.70;;
13327;SDS011;6733;51.044;3.746;2024-01-11T14:07:05;20.20;;;14.83;;
13327;SDS011;6733;51.044;3.746;2024-01-11T14:09:32;21.73;;;15.97;;
13327;SDS011;6733;51.044;3.746;2024-01-11T14:11:58;19.27;;;14.60;;
13327;SDS011;6733;51.044;3.746;2024-01-11T14:14:24;21.40;;;16.10;;
13327;SDS011;6733;51.044;3.746;2024-01-11T14:16:50;25.20;;;17.93;;
13327;SDS011;6733;51.044;3.746;2024-01-11T14:19:17;25.60;;;17.97;;
13327;SDS011;6733;51.044;3.746;2024-01-11T14:21:43;25.90;;;18.30;;
13327;SDS011;6733;51.044;3.746;2024-01-11T14:24:09;24.63;;;18.97;;
13327;SDS011;6733;51.044;3.746;2024-01-11T14:26:35;26.47;;;19.37;;
13327;SDS011;6733;51.044;3.746;2024-01-11T14:29:02;22.20;;;15.57;;
13327;SDS011;6733;51.044;3.746;2024-01-11T14:31:28;19.60;;;14.70;;
13327;SDS011;6733;51.044;3.746;2024-01-11T14:33:54;20.63;;;14.90;;
13327;SDS011;6733;51.044;3.746;2024-01-11T14:36:20;19.10;;;13.47;;
13327;SDS011;6733;51.044;3.746;2024-01-11T14:38:47;18.97;;;14.33;;
13327;SDS011;6733;51.044;3.746;2024-01-11T14:41:13;19.37;;;14.83;;
13327;SDS011;6733;51.044;3.746;2024-01-11T14:43:39;19.40;;;14.50;;
13327;SDS011;6733;51.044;3.746;2024-01-11T14:46:06;16.80;;;13.40;;